Alto Araguaia, Brazil
Current Conditions -  °F | °C
As of 11:00 AM on Thursday 27 Nov 2014 (Local Time) from SBCY Reporting Station
Broken Clouds Broken Clouds  
Wind Chill: 84°   Ceiling: 10000
Heat Index: 91°   Visibility: 6mi
Dew Point: 73°   Wind: 10mph
Humidity: 70%   Direction: 300°WNW
Pressure: 29.91"   Gusts: NA
Location:  17.31°S, 53.22°W
Report Text: SBCY 271400Z 30009KT 9999 SCT020 BKN100 29/23 Q1013
Loading
Personal Weather Stations






























Interactive Weather Map New forecast layout! Learn more

10-Day Weather Forecast

Advertisements
Track Severe Weather on mobile